Time;durP1;ratioP1;P1;durP2;ratioP2;P2;SDS_P1;SDS_P2;PMS_P1;PMS_P2;Temp;Humidity;BMP_temperature;BMP_pressure;BME280_temperature;BME280_humidity;BME280_pressure;Samples;Min_cycle;Max_cycle;Signal;HPM_P1;HPM_P2
2023/01/07 00:00:09;;;;;;;;;;;10.40;99.90;10.90;99981.00;;;;344303;28;92503;-91
2023/01/07 00:00:21;;;;;;;;;;;10.40;99.90;10.80;99983.00;;;;344899;28;82546;-91
2023/01/07 00:00:33;;;;;;;;;;;10.40;99.90;10.80;99968.00;;;;348514;27;90777;-91
2023/01/07 00:00:44;;;;;;;;;;;10.40;99.90;10.80;99985.00;;;;350357;27;82522;-92
2023/01/07 00:01:22;;;;;;;;;;;10.40;99.90;11.00;99993.00;;;;348474;27;90192;-92
2023/01/07 00:01:35;;;;;;;;;;;10.40;99.90;11.00;99982.00;;;;346081;28;83271;-91
2023/01/07 00:01:47;;;;;;;;;;;10.40;99.90;11.00;99979.00;;;;345818;28;90529;-91
2023/01/07 00:01:59;;;;;;;;;;;10.40;99.90;11.00;99983.00;;;;347476;27;83480;-92
2023/01/07 00:02:10;;;;;;;;;;;10.40;99.90;10.90;99971.00;;;;344450;28;90685;-92
2023/01/07 00:02:22;;;;;;;;;;;10.40;99.90;10.90;99969.00;;;;344877;28;83226;-92
2023/01/07 00:02:34;;;;;;;;;;;10.40;99.90;10.90;99977.00;;;;345658;28;92082;-91
2023/01/07 00:02:46;;;;;;;;;;;10.40;99.90;10.90;99969.00;;;;344830;28;83300;-91
2023/01/07 00:02:58;;;;;;;;;;;10.40;99.90;10.90;99975.00;;;;347290;28;91254;-91
2023/01/07 00:03:10;;;;;;;;;;;10.40;99.90;10.90;99974.00;;;;346336;28;82488;-92
2023/01/07 00:03:22;;;;;;;;;;;10.40;99.90;10.80;99978.00;;;;345832;28;91493;-91
2023/01/07 00:03:33;;;;;;;;;;;10.40;99.90;10.80;99976.00;;;;344818;28;82521;-91
2023/01/07 00:03:46;;;;;;;;;;;10.40;99.90;10.80;99972.00;;;;345865;28;91499;-92
2023/01/07 00:03:58;;;;;;;;;;;10.40;99.90;10.80;99976.00;;;;347660;28;83327;-91
2023/01/07 00:04:11;;;;;;;;;;;10.40;99.90;10.90;99969.00;;;;345844;28;88728;-92
2023/01/07 00:04:23;;;;;;;;;;;10.40;99.90;10.80;99970.00;;;;347425;28;83460;-91
2023/01/07 00:04:35;;;;;;;;;;;10.40;99.90;10.80;99970.00;;;;344358;28;92206;-91
2023/01/07 00:04:47;;;;;;;;;;;10.40;99.90;10.80;99968.00;;;;347495;28;82541;-91
2023/01/07 00:04:58;;;;;;;;;;;10.40;99.90;10.80;99971.00;;;;344420;28;90853;-91
2023/01/07 00:05:10;;;;;;;;;;;10.40;99.90;10.80;99971.00;;;;346261;28;83210;-91
2023/01/07 00:05:22;;;;;;;;;;;10.40;99.90;10.80;99970.00;;;;348486;27;90111;-92
2023/01/07 00:05:34;;;;;;;;;;;10.40;99.90;10.80;99976.00;;;;347579;28;83445;-91
2023/01/07 00:05:46;;;;;;;;;;;10.40;99.90;10.80;99968.00;;;;345772;28;90532;-91
2023/01/07 00:06:01;;;;;;;;;;;10.40;99.90;10.80;99971.00;;;;347528;28;82563;-92
2023/01/07 00:06:15;;;;;;;;;;;10.40;99.90;10.80;99967.00;;;;349972;27;90418;-91
2023/01/07 00:06:28;;;;;;;;;;;10.40;99.90;10.90;99965.00;;;;347428;28;82575;-91
2023/01/07 00:06:41;;;;;;;;;;;10.40;99.90;10.80;99967.00;;;;348274;27;92246;-91
2023/01/07 00:06:53;;;;;;;;;;;10.40;99.90;10.70;99965.00;;;;346114;28;82438;-91
2023/01/07 00:07:04;;;;;;;;;;;10.40;99.90;10.70;99970.00;;;;347275;28;90767;-92
2023/01/07 00:07:16;;;;;;;;;;;10.40;99.90;10.70;99970.00;;;;347639;28;83262;-91
2023/01/07 00:07:28;;;;;;;;;;;10.40;99.90;10.70;99966.00;;;;345754;28;90135;-90
2023/01/07 00:07:40;;;;;;;;;;;10.40;99.90;10.80;99962.00;;;;347651;28;83324;-92
2023/01/07 00:07:52;;;;;;;;;;;10.40;99.90;10.80;99967.00;;;;348577;27;90232;-91
2023/01/07 00:08:04;;;;;;;;;;;10.40;99.90;10.70;99977.00;;;;347614;28;83429;-92
2023/01/07 00:08:15;;;;;;;;;;;10.40;99.90;10.70;99964.00;;;;345738;28;91907;-91
2023/01/07 00:08:31;;;;;;;;;;;10.40;99.90;10.70;99968.00;;;;344824;28;83436;-92
2023/01/07 00:08:45;;;;;;;;;;;10.40;99.90;10.70;99968.00;;;;348564;27;91498;-91
2023/01/07 00:08:57;;;;;;;;;;;10.40;99.90;10.70;99974.00;;;;347660;28;83525;-92
2023/01/07 00:09:11;;;;;;;;;;;10.40;99.90;10.60;99971.00;;;;345821;28;90651;-92
2023/01/07 00:09:23;;;;;;;;;;;10.40;99.90;10.60;99969.00;;;;344801;28;83427;-91
2023/01/07 00:09:35;;;;;;;;;;;10.30;99.90;10.60;99965.00;;;;344173;28;91559;-91
2023/01/07 00:09:47;;;;;;;;;;;10.30;99.90;10.60;99961.00;;;;344783;28;82283;-92
2023/01/07 00:09:58;;;;;;;;;;;10.30;99.90;10.60;99971.00;;;;347208;28;90288;-91
2023/01/07 00:10:10;;;;;;;;;;;10.30;99.90;10.70;99960.00;;;;347512;27;83486;-91
2023/01/07 00:10:22;;;;;;;;;;;10.30;99.90;10.70;99967.00;;;;345782;28;90409;-92
2023/01/07 00:10:34;;;;;;;;;;;10.30;99.90;10.60;99968.00;;;;346360;28;82349;-91
2023/01/07 00:10:46;;;;;;;;;;;10.30;99.90;10.70;99972.00;;;;345607;28;92803;-91
2023/01/07 00:11:01;;;;;;;;;;;10.30;99.90;10.70;99963.00;;;;349035;27;82533;-91
2023/01/07 00:11:33;;;;;;;;;;;10.30;99.90;10.60;99966.00;;;;345723;28;91267;-91
2023/01/07 00:11:45;;;;;;;;;;;10.30;99.90;10.70;99968.00;;;;347367;28;82539;-92
2023/01/07 00:11:57;;;;;;;;;;;10.30;99.90;10.60;99959.00;;;;348476;27;91904;-91
2023/01/07 00:12:08;;;;;;;;;;;10.30;99.90;10.60;99965.00;;;;344753;28;83435;-92
2023/01/07 00:12:20;;;;;;;;;;;10.30;99.90;10.60;99964.00;;;;344422;28;90301;-91
2023/01/07 00:12:33;;;;;;;;;;;10.30;99.90;10.60;99964.00;;;;346072;28;82357;-92
2023/01/07 00:12:45;;;;;;;;;;;10.20;99.90;10.60;99962.00;;;;344127;28;90706;-92
2023/01/07 00:12:57;;;;;;;;;;;10.20;99.90;10.60;99968.00;;;;346191;28;82391;-91
2023/01/07 00:13:08;;;;;;;;;;;10.20;99.90;10.60;99965.00;;;;348387;27;92602;-91
2023/01/07 00:13:20;;;;;;;;;;;10.20;99.90;10.60;99969.00;;;;344843;28;83482;-91
2023/01/07 00:13:32;;;;;;;;;;;10.20;99.90;10.60;99966.00;;;;344313;28;91191;-91
2023/01/07 00:13:45;;;;;;;;;;;10.20;99.90;10.60;99968.00;;;;348963;27;83945;-91
2023/01/07 00:13:57;;;;;;;;;;;10.20;99.90;10.60;99972.00;;;;345744;28;90840;-92
2023/01/07 00:14:10;;;;;;;;;;;10.20;99.90;10.60;99967.00;;;;344627;28;82631;-91
2023/01/07 00:14:22;;;;;;;;;;;10.20;99.90;10.60;99965.00;;;;344462;28;90080;-91
2023/01/07 00:14:34;;;;;;;;;;;10.20;99.90;10.50;99967.00;;;;347491;28;83462;-91
2023/01/07 00:14:46;;;;;;;;;;;10.20;99.90;10.50;99973.00;;;;345519;28;91174;-92
2023/01/07 00:14:58;;;;;;;;;;;10.20;99.90;10.50;99968.00;;;;346160;28;83476;-91
2023/01/07 00:15:10;;;;;;;;;;;10.20;99.90;10.50;99963.00;;;;347131;28;91505;-91
2023/01/07 00:15:22;;;;;;;;;;;10.20;99.90;10.50;99972.00;;;;344780;28;82528;-91
2023/01/07 00:15:34;;;;;;;;;;;10.20;99.90;10.50;99971.00;;;;345762;28;90457;-91
2023/01/07 00:15:45;;;;;;;;;;;10.20;99.90;10.50;99969.00;;;;346202;28;83296;-91
2023/01/07 00:15:58;;;;;;;;;;;10.20;99.90;10.50;99972.00;;;;344379;28;91258;-91
2023/01/07 00:16:12;;;;;;;;;;;10.20;99.90;10.50;99967.00;;;;347475;28;83266;-91
2023/01/07 00:16:26;;;;;;;;;;;10.20;99.90;10.50;99967.00;;;;347178;28;91337;-91
2023/01/07 00:16:38;;;;;;;;;;;10.20;99.90;10.50;99957.00;;;;345946;28;82565;-91
2023/01/07 00:16:50;;;;;;;;;;;10.20;99.90;10.50;99968.00;;;;348456;27;91633;-92
2023/01/07 00:17:01;;;;;;;;;;;10.20;99.90;10.50;99968.00;;;;344708;28;82526;-91
2023/01/07 00:17:13;;;;;;;;;;;10.20;99.90;10.50;99967.00;;;;345694;28;91228;-91
2023/01/07 00:17:25;;;;;;;;;;;10.20;99.90;10.40;99964.00;;;;347439;28;83433;-92
2023/01/07 00:17:37;;;;;;;;;;;10.20;99.90;10.40;99965.00;;;;344300;28;91628;-92
2023/01/07 00:17:49;;;;;;;;;;;10.20;99.90;10.50;99966.00;;;;347502;28;83375;-92
2023/01/07 00:18:00;;;;;;;;;;;10.20;99.90;10.70;99968.00;;;;348021;27;91533;-91
2023/01/07 00:18:12;;;;;;;;;;;10.20;99.90;10.70;99968.00;;;;346174;28;83456;-91
2023/01/07 00:18:24;;;;;;;;;;;10.20;99.90;10.70;99971.00;;;;348528;27;90314;-91
2023/01/07 00:18:36;;;;;;;;;;;10.20;99.90;10.60;99963.00;;;;348930;27;83473;-91
2023/01/07 00:18:49;;;;;;;;;;;10.20;99.90;10.60;99980.00;;;;347223;28;89961;-92
2023/01/07 00:19:03;;;;;;;;;;;10.20;99.90;10.60;99967.00;;;;347578;28;82440;-91
2023/01/07 00:19:14;;;;;;;;;;;10.20;99.90;10.60;99970.00;;;;347015;28;92122;-91
2023/01/07 00:19:26;;;;;;;;;;;10.20;99.90;10.60;99966.00;;;;348912;27;82412;-91
2023/01/07 00:19:38;;;;;;;;;;;10.20;99.90;10.60;99973.00;;;;344305;28;91974;-91
2023/01/07 00:19:50;;;;;;;;;;;10.20;99.90;10.50;99967.00;;;;347559;28;83243;-91
2023/01/07 00:20:01;;;;;;;;;;;10.20;99.90;10.50;99963.00;;;;348378;27;90218;-92
2023/01/07 00:20:13;;;;;;;;;;;10.20;99.90;10.50;99962.00;;;;346026;28;83410;-92
2023/01/07 00:20:25;;;;;;;;;;;10.20;99.90;10.50;99960.00;;;;347209;28;91783;-91
2023/01/07 00:20:37;;;;;;;;;;;10.20;99.90;10.50;99965.00;;;;346236;28;82519;-91
2023/01/07 00:20:49;;;;;;;;;;;10.10;99.90;10.50;99965.00;;;;345779;28;90637;-91
2023/01/07 00:21:03;;;;;;;;;;;10.20;99.90;10.50;99965.00;;;;346156;28;83353;-91
2023/01/07 00:21:16;;;;;;;;;;;10.20;99.90;10.50;99968.00;;;;345646;28;92229;-91
2023/01/07 00:21:28;;;;;;;;;;;10.20;99.90;10.50;99966.00;;;;346184;28;82442;-92
2023/01/07 00:21:41;;;;;;;;;;;10.20;99.90;10.50;99967.00;;;;347216;28;89970;-91
2023/01/07 00:21:53;;;;;;;;;;;10.20;99.90;10.50;99959.00;;;;344816;28;82493;-92
2023/01/07 00:22:05;;;;;;;;;;;10.10;99.90;10.40;99963.00;;;;345635;28;90416;-91
2023/01/07 00:22:17;;;;;;;;;;;10.10;99.90;10.40;99971.00;;;;347589;28;83152;-91
2023/01/07 00:22:29;;;;;;;;;;;10.10;99.90;10.40;99969.00;;;;344425;28;87736;-91
2023/01/07 00:22:41;;;;;;;;;;;10.10;99.90;10.30;99959.00;;;;349050;27;82530;-92
2023/01/07 00:22:52;;;;;;;;;;;10.10;99.90;10.40;99969.00;;;;348241;27;91796;-90
2023/01/07 00:23:04;;;;;;;;;;;10.10;99.90;10.30;99966.00;;;;344686;28;83227;-91
2023/01/07 00:23:16;;;;;;;;;;;10.10;99.90;10.30;99972.00;;;;345648;28;92164;-91
2023/01/07 00:23:28;;;;;;;;;;;10.10;99.90;10.30;99962.00;;;;347452;27;84110;-91
2023/01/07 00:23:41;;;;;;;;;;;10.10;99.90;10.50;99968.00;;;;347221;28;90080;-91
2023/01/07 00:23:56;;;;;;;;;;;10.10;99.90;10.60;99972.00;;;;344860;28;82505;-92
2023/01/07 00:24:09;;;;;;;;;;;10.10;99.90;10.60;99959.00;;;;344267;28;90590;-91
2023/01/07 00:24:20;;;;;;;;;;;10.10;99.90;10.60;99965.00;;;;348972;27;82538;-91
2023/01/07 00:24:32;;;;;;;;;;;10.10;99.90;10.60;99967.00;;;;345683;28;91482;-91
2023/01/07 00:24:44;;;;;;;;;;;10.10;99.90;10.60;99968.00;;;;346199;28;83395;-91
2023/01/07 00:24:56;;;;;;;;;;;10.10;99.90;10.50;99956.00;;;;345672;28;91700;-92
2023/01/07 00:25:08;;;;;;;;;;;10.10;99.90;10.50;99955.00;;;;344606;28;83275;-91
2023/01/07 00:25:20;;;;;;;;;;;10.10;99.90;10.50;99969.00;;;;345622;28;91267;-91
2023/01/07 00:25:32;;;;;;;;;;;10.10;99.90;10.50;99971.00;;;;344727;28;83527;-91
2023/01/07 00:25:44;;;;;;;;;;;10.10;99.90;10.50;99963.00;;;;347280;28;90346;-92
2023/01/07 00:26:00;;;;;;;;;;;10.10;99.90;10.50;99970.00;;;;346392;28;83342;-91
2023/01/07 00:26:16;;;;;;;;;;;10.10;99.90;10.40;99972.00;;;;345690;28;91528;-91
2023/01/07 00:26:32;;;;;;;;;;;10.10;99.90;10.40;99973.00;;;;346211;28;83321;-91
2023/01/07 00:26:44;;;;;;;;;;;10.10;99.90;10.40;99972.00;;;;348514;27;91834;-91
2023/01/07 00:26:56;;;;;;;;;;;10.10;99.90;10.40;99966.00;;;;346254;28;82507;-91
2023/01/07 00:27:08;;;;;;;;;;;10.10;99.90;10.40;99974.00;;;;347060;28;90889;-91
2023/01/07 00:27:19;;;;;;;;;;;10.00;99.90;10.40;99974.00;;;;347475;27;83136;-91
2023/01/07 00:27:31;;;;;;;;;;;10.00;99.90;10.40;99976.00;;;;347111;28;92850;-92
2023/01/07 00:27:43;;;;;;;;;;;10.10;99.90;10.30;99974.00;;;;347630;28;82500;-91
2023/01/07 00:27:55;;;;;;;;;;;10.00;99.90;10.30;99967.00;;;;345715;28;90323;-92
2023/01/07 00:28:06;;;;;;;;;;;10.00;99.90;10.30;99972.00;;;;345862;28;83460;-92
2023/01/07 00:28:18;;;;;;;;;;;10.00;99.90;10.30;99977.00;;;;344460;28;90461;-92
2023/01/07 00:28:32;;;;;;;;;;;10.00;99.90;10.30;99973.00;;;;346241;28;83315;-92
2023/01/07 00:28:46;;;;;;;;;;;10.00;99.90;10.40;99967.00;;;;344305;28;90516;-92
2023/01/07 00:28:59;;;;;;;;;;;10.00;99.90;10.40;99968.00;;;;346269;28;82292;-91
2023/01/07 00:29:10;;;;;;;;;;;10.00;99.90;10.40;99971.00;;;;344231;28;91764;-91
2023/01/07 00:29:22;;;;;;;;;;;10.00;99.90;10.40;99972.00;;;;348887;27;83335;-92
2023/01/07 00:29:34;;;;;;;;;;;10.00;99.90;10.40;99973.00;;;;345692;28;91178;-91
2023/01/07 00:29:46;;;;;;;;;;;10.00;99.90;10.30;99958.00;;;;346285;28;83376;-92
2023/01/07 00:29:58;;;;;;;;;;;10.00;99.90;10.30;99968.00;;;;344437;28;89877;-92
2023/01/07 00:30:10;;;;;;;;;;;10.00;99.90;10.30;99967.00;;;;346139;28;83422;-91
2023/01/07 00:30:22;;;;;;;;;;;10.00;99.90;10.30;99968.00;;;;345755;28;91561;-91
2023/01/07 00:30:34;;;;;;;;;;;10.00;99.90;10.30;99969.00;;;;347600;28;83392;-92
2023/01/07 00:30:46;;;;;;;;;;;10.00;99.90;10.30;99969.00;;;;345644;28;91589;-91
2023/01/07 00:31:08;;;;;;;;;;;10.00;99.90;10.30;99967.00;;;;346223;28;82366;-91
2023/01/07 00:31:22;;;;;;;;;;;10.00;99.90;10.30;99973.00;;;;347101;28;91643;-91
2023/01/07 00:31:35;;;;;;;;;;;10.00;99.90;10.40;99967.00;;;;344672;28;82600;-91
2023/01/07 00:31:48;;;;;;;;;;;10.00;99.90;10.40;99969.00;;;;345673;28;92655;-91
2023/01/07 00:31:59;;;;;;;;;;;10.00;99.90;10.40;99968.00;;;;347728;28;82406;-91
2023/01/07 00:32:11;;;;;;;;;;;10.00;99.90;10.50;99964.00;;;;345785;28;90313;-91
2023/01/07 00:32:46;;;;;;;;;;;10.00;99.90;10.50;99967.00;;;;347816;28;82518;-91
2023/01/07 00:33:05;;;;;;;;;;;10.00;99.90;10.40;99973.00;;;;345835;28;90459;-91
2023/01/07 00:33:17;;;;;;;;;;;10.00;99.90;10.30;99959.00;;;;346313;28;82343;-91
2023/01/07 00:33:29;;;;;;;;;;;10.00;99.90;10.30;99967.00;;;;347358;28;90141;-92
2023/01/07 00:33:50;;;;;;;;;;;10.00;99.90;10.30;99966.00;;;;343524;28;83436;-92
2023/01/07 00:34:15;;;;;;;;;;;10.00;99.90;10.30;99965.00;;;;347759;28;83447;-92
2023/01/07 00:34:27;;;;;;;;;;;10.00;99.90;10.30;99966.00;;;;347239;28;90748;-92
2023/01/07 00:34:39;;;;;;;;;;;10.00;99.90;10.30;99964.00;;;;349210;27;83458;-91
2023/01/07 00:34:50;;;;;;;;;;;10.00;99.90;10.30;99961.00;;;;345971;28;91533;-92
2023/01/07 00:35:03;;;;;;;;;;;10.00;99.90;10.30;99954.00;;;;344879;28;83463;-91
2023/01/07 00:35:22;;;;;;;;;;;10.00;99.90;10.30;99960.00;;;;345858;28;91492;-91
2023/01/07 00:35:35;;;;;;;;;;;10.00;99.90;10.30;99972.00;;;;346376;28;83389;-91
2023/01/07 00:35:47;;;;;;;;;;;10.00;99.90;10.30;99968.00;;;;344485;28;91309;-91
2023/01/07 00:36:04;;;;;;;;;;;10.00;99.90;10.30;99964.00;;;;345045;28;82426;-91
2023/01/07 00:36:16;;;;;;;;;;;10.00;99.90;10.30;99964.00;;;;345927;28;90784;-91
2023/01/07 00:36:29;;;;;;;;;;;10.00;99.90;10.40;99965.00;;;;345022;28;83408;-92
2023/01/07 00:36:42;;;;;;;;;;;10.00;99.90;10.30;99964.00;;;;344181;28;91081;-91
2023/01/07 00:37:48;;;;;;;;;;;10.00;99.90;10.40;99962.00;;;;347842;28;82310;-92
2023/01/07 00:37:56;;;;;;;;;;;10.00;99.90;10.40;99963.00;;;;346000;28;83404;-91
2023/01/07 00:38:08;;;;;;;;;;;10.00;99.90;10.40;99957.00;;;;345701;28;89229;-91
2023/01/07 00:38:19;;;;;;;;;;;10.00;99.90;10.40;99965.00;;;;344761;28;83435;-91
2023/01/07 00:38:31;;;;;;;;;;;10.00;99.90;10.30;99959.00;;;;345621;28;91549;-91
2023/01/07 00:38:43;;;;;;;;;;;10.00;99.90;10.30;99957.00;;;;347526;28;83282;-91
2023/01/07 00:39:00;;;;;;;;;;;10.00;99.90;10.30;99960.00;;;;345570;28;91232;-91
2023/01/07 00:39:16;;;;;;;;;;;10.00;99.90;10.30;99949.00;;;;348956;27;83337;-91
2023/01/07 00:39:28;;;;;;;;;;;10.00;99.90;10.30;99957.00;;;;345555;28;91639;-91
2023/01/07 00:39:39;;;;;;;;;;;10.00;99.90;10.30;99960.00;;;;343630;28;83490;-91
2023/01/07 00:39:52;;;;;;;;;;;10.00;99.90;10.30;99954.00;;;;345767;28;89778;-91
2023/01/07 00:40:05;;;;;;;;;;;10.00;99.90;10.30;99956.00;;;;348882;27;83324;-92
2023/01/07 00:40:17;;;;;;;;;;;10.00;99.90;10.40;99959.00;;;;347038;28;92536;-92
2023/01/07 00:40:29;;;;;;;;;;;10.00;99.90;10.40;99959.00;;;;347653;28;82274;-91
2023/01/07 00:40:41;;;;;;;;;;;10.00;99.90;10.40;99955.00;;;;348499;27;90512;-92
2023/01/07 00:40:53;;;;;;;;;;;10.00;99.90;10.40;99958.00;;;;348809;27;83468;-91
2023/01/07 00:41:05;;;;;;;;;;;10.00;99.90;10.40;99963.00;;;;345631;28;90937;-92
2023/01/07 00:41:17;;;;;;;;;;;10.00;99.90;10.50;99953.00;;;;347523;28;83549;-91
2023/01/07 00:41:28;;;;;;;;;;;10.00;99.90;10.50;99948.00;;;;347068;27;92559;-91
2023/01/07 00:42:52;;;;;;;;;;;10.00;99.90;10.40;99954.00;;;;347495;28;83438;-93
2023/01/07 00:43:00;;;;;;;;;;;10.00;99.90;10.50;99949.00;;;;347576;27;82570;-92
2023/01/07 00:43:12;;;;;;;;;;;10.00;99.90;10.40;99952.00;;;;345693;28;91615;-91
2023/01/07 00:43:23;;;;;;;;;;;10.00;99.90;10.40;99952.00;;;;348917;27;83442;-93
2023/01/07 00:43:35;;;;;;;;;;;10.00;99.90;10.40;99950.00;;;;345682;28;90243;-91
2023/01/07 00:43:47;;;;;;;;;;;10.00;99.90;10.40;99947.00;;;;346236;28;82412;-91
2023/01/07 00:43:59;;;;;;;;;;;10.00;99.90;10.40;99946.00;;;;345428;28;92235;-91
2023/01/07 00:44:10;;;;;;;;;;;10.00;99.90;10.40;99947.00;;;;347566;28;82488;-91
2023/01/07 00:44:22;;;;;;;;;;;10.00;99.90;10.40;99945.00;;;;347020;28;91527;-90
2023/01/07 00:44:36;;;;;;;;;;;10.00;99.90;10.40;99945.00;;;;346209;28;83271;-91
2023/01/07 00:44:48;;;;;;;;;;;10.00;99.90;10.50;99946.00;;;;344359;28;90211;-92
2023/01/07 00:45:00;;;;;;;;;;;10.00;99.90;10.40;99951.00;;;;344764;28;83363;-91
2023/01/07 00:45:12;;;;;;;;;;;10.00;99.90;10.40;99947.00;;;;347185;28;90425;-92
2023/01/07 00:45:24;;;;;;;;;;;10.00;99.90;10.40;99948.00;;;;348585;27;83493;-91
2023/01/07 00:45:35;;;;;;;;;;;10.00;99.90;10.40;99948.00;;;;347138;28;91763;-91
2023/01/07 00:45:47;;;;;;;;;;;10.00;99.90;10.40;99951.00;;;;347542;28;83451;-92
2023/01/07 00:45:59;;;;;;;;;;;10.00;99.90;10.40;99944.00;;;;347075;27;92275;-92
2023/01/07 00:46:11;;;;;;;;;;;10.00;99.90;10.40;99943.00;;;;347558;28;83882;-91
2023/01/07 00:46:23;;;;;;;;;;;10.00;99.90;10.40;99938.00;;;;345696;28;92086;-91
2023/01/07 00:46:35;;;;;;;;;;;10.00;99.90;10.50;99935.00;;;;347506;28;83395;-91
2023/01/07 00:46:47;;;;;;;;;;;10.00;99.90;10.60;99943.00;;;;349958;27;88067;-91
2023/01/07 00:46:59;;;;;;;;;;;10.00;99.90;10.60;99948.00;;;;345937;28;82623;-91
2023/01/07 00:47:12;;;;;;;;;;;10.10;99.90;10.60;99947.00;;;;347034;28;90283;-91
2023/01/07 00:47:24;;;;;;;;;;;10.00;99.90;10.50;99940.00;;;;347423;27;82522;-91
2023/01/07 00:47:36;;;;;;;;;;;10.00;99.90;10.50;99946.00;;;;344425;28;91242;-91
2023/01/07 00:47:52;;;;;;;;;;;10.10;99.90;10.50;99940.00;;;;344888;28;83341;-91
2023/01/07 00:48:04;;;;;;;;;;;10.00;99.90;10.50;99946.00;;;;345662;28;91318;-93
2023/01/07 00:48:17;;;;;;;;;;;10.10;99.90;10.40;99942.00;;;;344772;28;83360;-91
2023/01/07 00:48:29;;;;;;;;;;;10.00;99.90;10.40;99947.00;;;;347134;28;91414;-91
2023/01/07 00:48:41;;;;;;;;;;;10.00;99.90;10.40;99947.00;;;;346159;28;83407;-91
2023/01/07 00:48:53;;;;;;;;;;;10.00;99.90;10.40;99933.00;;;;348491;27;90188;-91
2023/01/07 00:49:05;;;;;;;;;;;10.00;99.90;10.40;99933.00;;;;346188;28;83529;-91
2023/01/07 00:49:17;;;;;;;;;;;10.00;99.90;10.30;99940.00;;;;346874;28;91312;-91
2023/01/07 00:49:29;;;;;;;;;;;10.00;99.90;10.40;99939.00;;;;350304;27;82410;-92
2023/01/07 00:49:41;;;;;;;;;;;10.00;99.90;10.40;99940.00;;;;345817;28;90503;-91
2023/01/07 00:49:53;;;;;;;;;;;10.00;99.90;10.40;99944.00;;;;348898;27;83359;-90
2023/01/07 00:50:05;;;;;;;;;;;10.00;99.90;10.40;99946.00;;;;345736;28;90156;-91
2023/01/07 00:50:17;;;;;;;;;;;10.00;99.90;10.30;99942.00;;;;346300;28;83435;-91
2023/01/07 00:50:31;;;;;;;;;;;10.00;99.90;10.30;99939.00;;;;347070;28;88715;-91
2023/01/07 00:50:43;;;;;;;;;;;10.00;99.90;10.30;99937.00;;;;344726;28;83391;-91
2023/01/07 00:50:54;;;;;;;;;;;10.00;99.90;10.30;99937.00;;;;347103;27;91528;-91
2023/01/07 00:51:08;;;;;;;;;;;10.00;99.90;10.40;99941.00;;;;349002;27;83482;-91
2023/01/07 00:51:20;;;;;;;;;;;10.00;99.90;10.40;99941.00;;;;348493;27;91343;-92
2023/01/07 00:51:32;;;;;;;;;;;10.00;99.90;10.30;99932.00;;;;347461;28;82539;-91
2023/01/07 00:51:43;;;;;;;;;;;10.00;99.90;10.30;99928.00;;;;345838;28;89920;-91
2023/01/07 00:51:55;;;;;;;;;;;10.00;99.90;10.40;99939.00;;;;346114;28;83440;-92
2023/01/07 00:52:07;;;;;;;;;;;10.00;99.90;10.40;99947.00;;;;346861;28;89834;-91
2023/01/07 00:52:19;;;;;;;;;;;10.00;99.90;10.40;99938.00;;;;347507;28;82296;-90
2023/01/07 00:52:31;;;;;;;;;;;10.00;99.90;10.30;99931.00;;;;347037;28;92428;-91
2023/01/07 00:52:42;;;;;;;;;;;10.00;99.90;10.20;99933.00;;;;344784;28;83477;-91
2023/01/07 00:52:54;;;;;;;;;;;10.00;99.90;10.20;99937.00;;;;344332;28;90615;-91
2023/01/07 00:53:06;;;;;;;;;;;10.00;99.90;10.20;99940.00;;;;346051;28;83466;-91
2023/01/07 00:53:18;;;;;;;;;;;10.00;99.90;10.20;99945.00;;;;344110;28;90723;-91
2023/01/07 00:53:30;;;;;;;;;;;10.00;99.90;10.30;99930.00;;;;344756;28;82581;-92
2023/01/07 00:53:42;;;;;;;;;;;9.90;99.90;10.30;99933.00;;;;348495;27;90738;-92
2023/01/07 00:53:53;;;;;;;;;;;10.00;99.90;10.30;99936.00;;;;347573;28;83414;-91
2023/01/07 00:54:05;;;;;;;;;;;9.90;99.90;10.30;99939.00;;;;347012;28;90425;-92
2023/01/07 00:54:17;;;;;;;;;;;10.00;99.90;10.40;99934.00;;;;346125;28;83337;-91
2023/01/07 00:54:29;;;;;;;;;;;9.90;99.90;10.40;99941.00;;;;347047;28;92084;-91
2023/01/07 00:54:41;;;;;;;;;;;9.90;99.90;10.40;99940.00;;;;347256;27;82565;-91
2023/01/07 00:54:53;;;;;;;;;;;9.90;99.90;10.30;99935.00;;;;346898;28;90152;-91
2023/01/07 00:55:05;;;;;;;;;;;9.90;99.90;10.20;99939.00;;;;346208;28;82522;-91
2023/01/07 00:55:17;;;;;;;;;;;9.90;99.90;10.30;99935.00;;;;345736;28;90576;-91
2023/01/07 00:55:29;;;;;;;;;;;9.90;99.90;10.30;99932.00;;;;346121;28;83305;-91
2023/01/07 00:55:41;;;;;;;;;;;9.90;99.90;10.30;99933.00;;;;345703;28;89293;-91
2023/01/07 00:55:52;;;;;;;;;;;9.90;99.90;10.30;99930.00;;;;347527;28;82532;-91
2023/01/07 00:56:04;;;;;;;;;;;9.90;99.90;10.30;99931.00;;;;345518;28;91843;-92
2023/01/07 00:56:17;;;;;;;;;;;9.90;99.90;10.30;99927.00;;;;344777;28;83409;-92
2023/01/07 00:56:29;;;;;;;;;;;9.90;99.90;10.20;99931.00;;;;345409;28;92676;-91
2023/01/07 00:56:41;;;;;;;;;;;9.90;99.90;10.20;99938.00;;;;346156;28;83527;-91
2023/01/07 00:56:53;;;;;;;;;;;9.90;99.90;10.30;99935.00;;;;347139;28;89882;-91
2023/01/07 00:57:05;;;;;;;;;;;9.90;99.90;10.30;99934.00;;;;350340;27;83462;-91
2023/01/07 00:57:16;;;;;;;;;;;9.90;99.90;10.30;99932.00;;;;347207;28;88999;-91
2023/01/07 00:57:28;;;;;;;;;;;9.90;99.90;10.40;99930.00;;;;346030;28;82550;-91
2023/01/07 00:57:41;;;;;;;;;;;9.90;99.90;10.40;99927.00;;;;344396;28;92040;-91
2023/01/07 00:57:53;;;;;;;;;;;9.90;99.90;10.40;99931.00;;;;347495;28;83438;-91
2023/01/07 00:58:05;;;;;;;;;;;9.90;99.90;10.30;99929.00;;;;348393;27;91143;-91
2023/01/07 00:58:22;;;;;;;;;;;9.90;99.90;10.30;99930.00;;;;347613;28;82555;-91
2023/01/07 00:58:34;;;;;;;;;;;9.90;99.90;10.40;99929.00;;;;342872;28;92537;-91
2023/01/07 00:58:46;;;;;;;;;;;9.90;99.90;10.30;99925.00;;;;344759;28;82513;-91
2023/01/07 00:58:58;;;;;;;;;;;9.90;99.90;10.30;99935.00;;;;345751;28;90227;-92
2023/01/07 00:59:10;;;;;;;;;;;9.90;99.90;10.30;99924.00;;;;347534;28;82523;-91
2023/01/07 00:59:21;;;;;;;;;;;9.90;99.90;10.30;99925.00;;;;347044;27;90557;-91
2023/01/07 00:59:33;;;;;;;;;;;9.90;99.90;10.30;99922.00;;;;344681;28;83255;-91
2023/01/07 00:59:45;;;;;;;;;;;9.90;99.90;10.40;99928.00;;;;345613;28;91729;-91
2023/01/07 00:59:57;;;;;;;;;;;9.90;99.90;10.30;99927.00;;;;347582;28;82527;-91
2023/01/07 01:00:10;;;;;;;;;;;9.90;99.90;10.20;99926.00;;;;345498;28;90588;-91
2023/01/07 01:00:23;;;;;;;;;;;9.90;99.90;10.30;99922.00;;;;347576;28;83428;-92
2023/01/07 01:00:35;;;;;;;;;;;9.90;99.90;10.30;99924.00;;;;344275;28;91208;-91
2023/01/07 01:00:47;;;;;;;;;;;9.90;99.90;10.30;99920.00;;;;346159;28;82547;-91
2023/01/07 01:00:59;;;;;;;;;;;9.90;99.90;10.20;99923.00;;;;347289;28;90368;-92
2023/01/07 01:01:11;;;;;;;;;;;9.90;99.90;10.10;99923.00;;;;344688;28;83532;-92
2023/01/07 01:01:23;;;;;;;;;;;9.90;99.90;10.20;99925.00;;;;347035;28;91374;-91
2023/01/07 01:01:35;;;;;;;;;;;9.80;99.90;10.30;99932.00;;;;346083;28;83950;-91
2023/01/07 01:01:47;;;;;;;;;;;9.90;99.90;10.30;99929.00;;;;344372;28;91443;-91
2023/01/07 01:01:59;;;;;;;;;;;9.80;99.90;10.40;99923.00;;;;347457;28;82580;-92
2023/01/07 01:02:11;;;;;;;;;;;9.80;99.90;10.40;99919.00;;;;347019;28;91585;-92
2023/01/07 01:02:23;;;;;;;;;;;9.90;99.90;10.30;99922.00;;;;344697;28;83496;-92
2023/01/07 01:02:35;;;;;;;;;;;9.90;99.90;10.30;99922.00;;;;346804;28;91272;-91
2023/01/07 01:02:47;;;;;;;;;;;9.90;99.90;10.30;99929.00;;;;344619;28;83502;-91
2023/01/07 01:02:58;;;;;;;;;;;9.90;99.90;10.30;99928.00;;;;347120;28;91387;-91
2023/01/07 01:03:10;;;;;;;;;;;9.90;99.90;10.20;99930.00;;;;346069;28;83427;-91
2023/01/07 01:03:22;;;;;;;;;;;9.90;99.90;10.30;99932.00;;;;344351;28;91295;-91
2023/01/07 01:03:34;;;;;;;;;;;9.90;99.90;10.30;99926.00;;;;347226;28;83403;-91
2023/01/07 01:03:46;;;;;;;;;;;9.90;99.90;10.30;99923.00;;;;344333;28;90016;-91
2023/01/07 01:03:58;;;;;;;;;;;9.80;99.90;10.30;99932.00;;;;348971;27;82365;-92
2023/01/07 01:04:10;;;;;;;;;;;9.80;99.90;10.30;99925.00;;;;345647;28;91402;-91
2023/01/07 01:04:21;;;;;;;;;;;9.80;99.90;10.30;99926.00;;;;347500;28;83179;-91
2023/01/07 01:04:33;;;;;;;;;;;9.80;99.90;10.30;99928.00;;;;345668;28;91209;-91